sensor_id;sensor_type;location;lat;lon;timestamp;temperature;humidity
66522;SHT31;53349;53.538;8.584;2022-07-29T00:00:09;15.13;70.04
66522;SHT31;53349;53.538;8.584;2022-07-29T00:02:35;15.08;70.16
66522;SHT31;53349;53.538;8.584;2022-07-29T00:05:01;15.00;70.63
66522;SHT31;53349;53.538;8.584;2022-07-29T00:07:27;14.99;70.83
66522;SHT31;53349;53.538;8.584;2022-07-29T00:09:52;14.98;70.95
66522;SHT31;53349;53.538;8.584;2022-07-29T00:12:23;14.96;71.03
66522;SHT31;53349;53.538;8.584;2022-07-29T00:14:49;14.95;71.18
66522;SHT31;53349;53.538;8.584;2022-07-29T00:17:14;14.89;71.37
66522;SHT31;53349;53.538;8.584;2022-07-29T00:19:40;14.86;71.38
66522;SHT31;53349;53.538;8.584;2022-07-29T00:22:05;14.86;71.58
66522;SHT31;53349;53.538;8.584;2022-07-29T00:24:31;14.81;71.73
66522;SHT31;53349;53.538;8.584;2022-07-29T00:26:56;14.86;71.51
66522;SHT31;53349;53.538;8.584;2022-07-29T00:29:22;14.84;71.48
66522;SHT31;53349;53.538;8.584;2022-07-29T00:31:47;14.82;71.43
66522;SHT31;53349;53.538;8.584;2022-07-29T00:34:13;14.79;71.46
66522;SHT31;53349;53.538;8.584;2022-07-29T00:36:57;14.81;71.46
66522;SHT31;53349;53.538;8.584;2022-07-29T00:39:23;14.82;71.41
66522;SHT31;53349;53.538;8.584;2022-07-29T00:41:48;14.78;71.43
66522;SHT31;53349;53.538;8.584;2022-07-29T00:44:14;14.74;71.49
66522;SHT31;53349;53.538;8.584;2022-07-29T00:46:39;14.78;71.35
66522;SHT31;53349;53.538;8.584;2022-07-29T00:49:05;14.78;71.35
66522;SHT31;53349;53.538;8.584;2022-07-29T00:51:34;14.77;71.36
66522;SHT31;53349;53.538;8.584;2022-07-29T00:54:00;14.78;71.24
66522;SHT31;53349;53.538;8.584;2022-07-29T00:56:26;14.81;71.22
66522;SHT31;53349;53.538;8.584;2022-07-29T00:58:52;14.75;71.24
66522;SHT31;53349;53.538;8.584;2022-07-29T01:01:18;14.74;71.29
66522;SHT31;53349;53.538;8.584;2022-07-29T01:03:44;14.71;71.36
66522;SHT31;53349;53.538;8.584;2022-07-29T01:06:10;14.67;71.43
66522;SHT31;53349;53.538;8.584;2022-07-29T01:08:35;14.68;71.45
66522;SHT31;53349;53.538;8.584;2022-07-29T01:11:02;14.71;71.32
66522;SHT31;53349;53.538;8.584;2022-07-29T01:13:29;14.72;71.26
66522;SHT31;53349;53.538;8.584;2022-07-29T01:16:13;14.69;71.38
66522;SHT31;53349;53.538;8.584;2022-07-29T01:18:44;14.75;71.16
66522;SHT31;53349;53.538;8.584;2022-07-29T01:30:01;14.67;71.54
66522;SHT31;53349;53.538;8.584;2022-07-29T01:32:33;14.63;71.65
66522;SHT31;53349;53.538;8.584;2022-07-29T01:35:17;14.63;71.65
66522;SHT31;53349;53.538;8.584;2022-07-29T01:37:48;14.65;71.75
66522;SHT31;53349;53.538;8.584;2022-07-29T01:40:19;14.60;71.92
66522;SHT31;53349;53.538;8.584;2022-07-29T01:42:50;14.64;71.71
66522;SHT31;53349;53.538;8.584;2022-07-29T01:45:37;14.63;71.86
66522;SHT31;53349;53.538;8.584;2022-07-29T01:48:12;14.57;71.93
66522;SHT31;53349;53.538;8.584;2022-07-29T01:50:46;14.57;71.99
66522;SHT31;53349;53.538;8.584;2022-07-29T01:53:16;14.60;71.98
66522;SHT31;53349;53.538;8.584;2022-07-29T01:55:44;14.58;71.99
66522;SHT31;53349;53.538;8.584;2022-07-29T01:58:11;14.61;71.90
66522;SHT31;53349;53.538;8.584;2022-07-29T02:00:39;14.55;72.05
66522;SHT31;53349;53.538;8.584;2022-07-29T02:03:09;14.55;72.19
66522;SHT31;53349;53.538;8.584;2022-07-29T02:05:37;14.51;72.25
66522;SHT31;53349;53.538;8.584;2022-07-29T02:08:05;14.55;72.16
66522;SHT31;53349;53.538;8.584;2022-07-29T02:10:32;14.54;72.10
66522;SHT31;53349;53.538;8.584;2022-07-29T02:12:59;14.55;72.14
66522;SHT31;53349;53.538;8.584;2022-07-29T02:15:28;14.44;72.35
66522;SHT31;53349;53.538;8.584;2022-07-29T02:18:01;14.44;72.39
66522;SHT31;53349;53.538;8.584;2022-07-29T02:20:28;14.47;72.34
66522;SHT31;53349;53.538;8.584;2022-07-29T02:22:57;14.49;72.17
66522;SHT31;53349;53.538;8.584;2022-07-29T02:25:24;14.49;72.06
66522;SHT31;53349;53.538;8.584;2022-07-29T02:27:51;14.49;72.09
66522;SHT31;53349;53.538;8.584;2022-07-29T02:30:18;14.42;72.30
66522;SHT31;53349;53.538;8.584;2022-07-29T02:32:46;14.42;72.32
66522;SHT31;53349;53.538;8.584;2022-07-29T02:35:14;14.41;72.26
66522;SHT31;53349;53.538;8.584;2022-07-29T02:37:43;14.38;72.45
66522;SHT31;53349;53.538;8.584;2022-07-29T02:40:13;14.37;72.54
66522;SHT31;53349;53.538;8.584;2022-07-29T02:42:42;14.41;72.38
66522;SHT31;53349;53.538;8.584;2022-07-29T02:45:09;14.40;72.31
66522;SHT31;53349;53.538;8.584;2022-07-29T02:47:42;14.40;72.31
66522;SHT31;53349;53.538;8.584;2022-07-29T02:50:15;14.38;72.24
66522;SHT31;53349;53.538;8.584;2022-07-29T02:55:29;14.34;72.11
66522;SHT31;53349;53.538;8.584;2022-07-29T02:58:10;14.31;72.09
66522;SHT31;53349;53.538;8.584;2022-07-29T03:00:39;14.30;72.06
66522;SHT31;53349;53.538;8.584;2022-07-29T03:03:09;14.31;71.96
66522;SHT31;53349;53.538;8.584;2022-07-29T03:05:36;14.30;71.74
66522;SHT31;53349;53.538;8.584;2022-07-29T03:08:04;14.33;71.48
66522;SHT31;53349;53.538;8.584;2022-07-29T03:10:31;14.34;71.35
66522;SHT31;53349;53.538;8.584;2022-07-29T03:12:58;14.33;71.30
66522;SHT31;53349;53.538;8.584;2022-07-29T03:15:23;14.33;71.48
66522;SHT31;53349;53.538;8.584;2022-07-29T03:17:50;14.33;71.44
66522;SHT31;53349;53.538;8.584;2022-07-29T03:20:17;14.28;71.59
66522;SHT31;53349;53.538;8.584;2022-07-29T03:22:43;14.36;71.49
66522;SHT31;53349;53.538;8.584;2022-07-29T03:25:17;14.31;71.44
66522;SHT31;53349;53.538;8.584;2022-07-29T03:27:43;14.38;71.23
66522;SHT31;53349;53.538;8.584;2022-07-29T03:30:10;14.31;71.30
66522;SHT31;53349;53.538;8.584;2022-07-29T03:32:36;14.33;71.31
66522;SHT31;53349;53.538;8.584;2022-07-29T03:35:03;14.38;70.95
66522;SHT31;53349;53.538;8.584;2022-07-29T03:37:29;14.40;70.98
66522;SHT31;53349;53.538;8.584;2022-07-29T03:39:57;14.42;70.96
66522;SHT31;53349;53.538;8.584;2022-07-29T03:42:29;14.42;70.84
66522;SHT31;53349;53.538;8.584;2022-07-29T03:44:57;14.38;71.09
66522;SHT31;53349;53.538;8.584;2022-07-29T03:47:26;14.44;71.04
66522;SHT31;53349;53.538;8.584;2022-07-29T03:49:54;14.44;71.21
66522;SHT31;53349;53.538;8.584;2022-07-29T03:52:21;14.45;71.26
66522;SHT31;53349;53.538;8.584;2022-07-29T03:54:47;14.41;71.50
66522;SHT31;53349;53.538;8.584;2022-07-29T03:57:14;14.41;71.49
66522;SHT31;53349;53.538;8.584;2022-07-29T03:59:41;14.42;71.57
66522;SHT31;53349;53.538;8.584;2022-07-29T04:02:09;14.38;71.65
66522;SHT31;53349;53.538;8.584;2022-07-29T04:04:36;14.42;71.78
66522;SHT31;53349;53.538;8.584;2022-07-29T04:07:02;14.41;71.72
66522;SHT31;53349;53.538;8.584;2022-07-29T04:09:28;14.45;71.60
66522;SHT31;53349;53.538;8.584;2022-07-29T04:11:54;14.44;71.71
66522;SHT31;53349;53.538;8.584;2022-07-29T04:14:19;14.42;71.63
66522;SHT31;53349;53.538;8.584;2022-07-29T04:16:45;14.45;71.67
66522;SHT31;53349;53.538;8.584;2022-07-29T04:19:11;14.47;71.76
66522;SHT31;53349;53.538;8.584;2022-07-29T04:21:38;14.45;71.66
66522;SHT31;53349;53.538;8.584;2022-07-29T04:24:04;14.49;71.46
66522;SHT31;53349;53.538;8.584;2022-07-29T04:26:29;14.49;71.40
66522;SHT31;53349;53.538;8.584;2022-07-29T04:28:55;14.52;71.38
66522;SHT31;53349;53.538;8.584;2022-07-29T04:31:20;14.52;71.27
66522;SHT31;53349;53.538;8.584;2022-07-29T04:33:46;14.49;71.36
66522;SHT31;53349;53.538;8.584;2022-07-29T04:36:11;14.54;71.27
66522;SHT31;53349;53.538;8.584;2022-07-29T04:38:37;14.57;71.22
66522;SHT31;53349;53.538;8.584;2022-07-29T04:41:03;14.55;71.31
66522;SHT31;53349;53.538;8.584;2022-07-29T04:43:28;14.57;71.24
66522;SHT31;53349;53.538;8.584;2022-07-29T04:45:54;14.58;71.17
66522;SHT31;53349;53.538;8.584;2022-07-29T04:48:19;14.64;71.17
66522;SHT31;53349;53.538;8.584;2022-07-29T04:50:44;14.63;71.14
66522;SHT31;53349;53.538;8.584;2022-07-29T04:53:10;14.69;71.09
66522;SHT31;53349;53.538;8.584;2022-07-29T04:55:36;14.68;71.24
66522;SHT31;53349;53.538;8.584;2022-07-29T04:58:03;14.72;71.24
66522;SHT31;53349;53.538;8.584;2022-07-29T05:00:29;14.75;71.21
66522;SHT31;53349;53.538;8.584;2022-07-29T05:02:54;14.81;71.22
66522;SHT31;53349;53.538;8.584;2022-07-29T05:05:22;14.81;71.17
66522;SHT31;53349;53.538;8.584;2022-07-29T05:07:48;14.84;71.16
66522;SHT31;53349;53.538;8.584;2022-07-29T05:10:13;14.84;71.14
66522;SHT31;53349;53.538;8.584;2022-07-29T05:12:39;14.85;71.08
66522;SHT31;53349;53.538;8.584;2022-07-29T05:15:05;14.81;71.33
66522;SHT31;53349;53.538;8.584;2022-07-29T05:17:30;14.82;71.42
66522;SHT31;53349;53.538;8.584;2022-07-29T05:19:56;14.82;71.37
66522;SHT31;53349;53.538;8.584;2022-07-29T05:22:21;14.84;71.64
66522;SHT31;53349;53.538;8.584;2022-07-29T05:24:47;14.91;71.54
66522;SHT31;53349;53.538;8.584;2022-07-29T05:27:12;14.95;71.45
66522;SHT31;53349;53.538;8.584;2022-07-29T05:29:38;14.93;71.60
66522;SHT31;53349;53.538;8.584;2022-07-29T05:32:04;14.96;71.41
66522;SHT31;53349;53.538;8.584;2022-07-29T05:34:30;14.93;71.43
66522;SHT31;53349;53.538;8.584;2022-07-29T05:36:56;14.98;71.61
66522;SHT31;53349;53.538;8.584;2022-07-29T05:39:21;14.99;71.56
66522;SHT31;53349;53.538;8.584;2022-07-29T05:41:47;15.03;71.45
66522;SHT31;53349;53.538;8.584;2022-07-29T05:44:12;15.10;71.28
66522;SHT31;53349;53.538;8.584;2022-07-29T05:46:39;15.13;71.11
66522;SHT31;53349;53.538;8.584;2022-07-29T05:49:04;15.16;71.05
66522;SHT31;53349;53.538;8.584;2022-07-29T05:51:32;15.19;71.09
66522;SHT31;53349;53.538;8.584;2022-07-29T05:53:57;15.23;70.93
66522;SHT31;53349;53.538;8.584;2022-07-29T05:56:23;15.27;70.72
66522;SHT31;53349;53.538;8.584;2022-07-29T05:58:48;15.27;70.78
66522;SHT31;53349;53.538;8.584;2022-07-29T06:01:14;15.35;70.85
66522;SHT31;53349;53.538;8.584;2022-07-29T06:03:39;15.40;70.58
66522;SHT31;53349;53.538;8.584;2022-07-29T06:06:06;15.46;70.49
66522;SHT31;53349;53.538;8.584;2022-07-29T06:08:32;15.51;70.39
66522;SHT31;53349;53.538;8.584;2022-07-29T06:10:59;15.50;70.54
66522;SHT31;53349;53.538;8.584;2022-07-29T06:13:24;15.54;70.45
66522;SHT31;53349;53.538;8.584;2022-07-29T06:15:50;15.54;70.61
66522;SHT31;53349;53.538;8.584;2022-07-29T06:18:16;15.64;70.45
66522;SHT31;53349;53.538;8.584;2022-07-29T06:20:41;15.68;70.31
66522;SHT31;53349;53.538;8.584;2022-07-29T06:23:07;15.67;70.44
66522;SHT31;53349;53.538;8.584;2022-07-29T06:25:33;15.74;70.42
66522;SHT31;53349;53.538;8.584;2022-07-29T06:28:00;15.83;70.08
66522;SHT31;53349;53.538;8.584;2022-07-29T06:30:26;15.95;69.87
66522;SHT31;53349;53.538;8.584;2022-07-29T06:32:52;16.01;69.45
66522;SHT31;53349;53.538;8.584;2022-07-29T06:35:17;16.08;69.38
66522;SHT31;53349;53.538;8.584;2022-07-29T06:37:43;16.12;69.19
66522;SHT31;53349;53.538;8.584;2022-07-29T06:40:09;16.21;69.01
66522;SHT31;53349;53.538;8.584;2022-07-29T06:42:53;16.39;68.68
66522;SHT31;53349;53.538;8.584;2022-07-29T06:45:19;16.75;67.91
66522;SHT31;53349;53.538;8.584;2022-07-29T06:47:44;17.10;66.58
66522;SHT31;53349;53.538;8.584;2022-07-29T06:50:09;17.42;65.58
66522;SHT31;53349;53.538;8.584;2022-07-29T06:52:38;17.72;64.77
66522;SHT31;53349;53.538;8.584;2022-07-29T06:55:04;17.90;63.74
66522;SHT31;53349;53.538;8.584;2022-07-29T06:57:30;17.92;63.45
66522;SHT31;53349;53.538;8.584;2022-07-29T06:59:58;17.81;63.81
66522;SHT31;53349;53.538;8.584;2022-07-29T07:02:24;17.71;63.98
66522;SHT31;53349;53.538;8.584;2022-07-29T07:04:49;17.76;63.98
66522;SHT31;53349;53.538;8.584;2022-07-29T07:07:15;17.69;64.18
66522;SHT31;53349;53.538;8.584;2022-07-29T07:09:40;17.72;64.36
66522;SHT31;53349;53.538;8.584;2022-07-29T07:12:06;17.79;64.22
66522;SHT31;53349;53.538;8.584;2022-07-29T07:14:32;17.85;63.73
66522;SHT31;53349;53.538;8.584;2022-07-29T07:16:57;17.98;63.64
66522;SHT31;53349;53.538;8.584;2022-07-29T07:19:25;18.02;63.51
66522;SHT31;53349;53.538;8.584;2022-07-29T07:21:52;18.16;63.42
66522;SHT31;53349;53.538;8.584;2022-07-29T07:24:18;18.23;63.20
66522;SHT31;53349;53.538;8.584;2022-07-29T07:26:43;18.32;63.02
66522;SHT31;53349;53.538;8.584;2022-07-29T07:29:09;18.37;62.95
66522;SHT31;53349;53.538;8.584;2022-07-29T07:31:36;18.50;62.62
66522;SHT31;53349;53.538;8.584;2022-07-29T07:34:02;18.72;62.06
66522;SHT31;53349;53.538;8.584;2022-07-29T07:36:27;19.05;61.19
66522;SHT31;53349;53.538;8.584;2022-07-29T07:38:53;19.35;59.95
66522;SHT31;53349;53.538;8.584;2022-07-29T07:41:18;19.47;59.80
66522;SHT31;53349;53.538;8.584;2022-07-29T07:43:44;19.65;59.71
66522;SHT31;53349;53.538;8.584;2022-07-29T07:46:09;19.63;59.01
66522;SHT31;53349;53.538;8.584;2022-07-29T07:48:35;19.73;59.33
66522;SHT31;53349;53.538;8.584;2022-07-29T07:51:01;19.74;59.50
66522;SHT31;53349;53.538;8.584;2022-07-29T07:53:26;19.69;59.60
66522;SHT31;53349;53.538;8.584;2022-07-29T07:55:52;19.50;59.13
66522;SHT31;53349;53.538;8.584;2022-07-29T07:58:18;19.38;59.96
66522;SHT31;53349;53.538;8.584;2022-07-29T08:00:43;19.38;60.51
66522;SHT31;53349;53.538;8.584;2022-07-29T08:03:09;19.40;60.63
66522;SHT31;53349;53.538;8.584;2022-07-29T08:05:38;19.39;61.07
66522;SHT31;53349;53.538;8.584;2022-07-29T08:08:03;19.38;61.34
66522;SHT31;53349;53.538;8.584;2022-07-29T08:10:29;19.36;61.22
66522;SHT31;53349;53.538;8.584;2022-07-29T08:13:13;19.25;61.48
66522;SHT31;53349;53.538;8.584;2022-07-29T08:15:39;19.20;61.81
66522;SHT31;53349;53.538;8.584;2022-07-29T08:18:09;19.25;61.88
66522;SHT31;53349;53.538;8.584;2022-07-29T08:20:36;19.32;61.52
66522;SHT31;53349;53.538;8.584;2022-07-29T08:23:03;19.45;61.21
66522;SHT31;53349;53.538;8.584;2022-07-29T08:25:29;19.52;60.93
66522;SHT31;53349;53.538;8.584;2022-07-29T08:27:55;19.62;60.74
66522;SHT31;53349;53.538;8.584;2022-07-29T08:30:20;19.77;60.34
66522;SHT31;53349;53.538;8.584;2022-07-29T08:32:47;19.98;59.56
66522;SHT31;53349;53.538;8.584;2022-07-29T08:35:13;20.16;59.29
66522;SHT31;53349;53.538;8.584;2022-07-29T08:37:39;20.34;58.71
66522;SHT31;53349;53.538;8.584;2022-07-29T08:40:05;20.71;57.99
66522;SHT31;53349;53.538;8.584;2022-07-29T08:42:31;21.07;57.67
66522;SHT31;53349;53.538;8.584;2022-07-29T08:44:57;21.16;56.91
66522;SHT31;53349;53.538;8.584;2022-07-29T08:47:23;21.22;56.61
66522;SHT31;53349;53.538;8.584;2022-07-29T08:49:51;21.17;56.66
66522;SHT31;53349;53.538;8.584;2022-07-29T08:52:17;21.17;56.23
66522;SHT31;53349;53.538;8.584;2022-07-29T08:54:43;21.17;56.32
66522;SHT31;53349;53.538;8.584;2022-07-29T08:57:12;21.23;56.40
66522;SHT31;53349;53.538;8.584;2022-07-29T08:59:40;21.26;56.22
66522;SHT31;53349;53.538;8.584;2022-07-29T09:02:12;21.36;56.40
66522;SHT31;53349;53.538;8.584;2022-07-29T09:04:41;21.38;56.35
66522;SHT31;53349;53.538;8.584;2022-07-29T09:07:07;21.34;56.43
66522;SHT31;53349;53.538;8.584;2022-07-29T09:09:33;21.46;56.43
66522;SHT31;53349;53.538;8.584;2022-07-29T09:11:59;21.53;55.65
66522;SHT31;53349;53.538;8.584;2022-07-29T09:14:25;21.47;56.10
66522;SHT31;53349;53.538;8.584;2022-07-29T09:16:55;21.55;56.45
66522;SHT31;53349;53.538;8.584;2022-07-29T09:19:25;21.55;56.64
66522;SHT31;53349;53.538;8.584;2022-07-29T09:21:51;21.53;56.89
66522;SHT31;53349;53.538;8.584;2022-07-29T09:26:59;21.81;56.18
66522;SHT31;53349;53.538;8.584;2022-07-29T09:29:25;21.73;55.60
66522;SHT31;53349;53.538;8.584;2022-07-29T09:31:51;21.82;55.66
66522;SHT31;53349;53.538;8.584;2022-07-29T09:34:23;21.87;54.95
66522;SHT31;53349;53.538;8.584;2022-07-29T09:36:50;21.99;54.88
66522;SHT31;53349;53.538;8.584;2022-07-29T09:39:27;21.95;55.44
66522;SHT31;53349;53.538;8.584;2022-07-29T09:41:56;21.95;55.12
66522;SHT31;53349;53.538;8.584;2022-07-29T09:44:23;21.92;55.32
66522;SHT31;53349;53.538;8.584;2022-07-29T09:47:02;21.85;56.01
66522;SHT31;53349;53.538;8.584;2022-07-29T09:49:52;21.92;55.58
66522;SHT31;53349;53.538;8.584;2022-07-29T09:52:19;21.94;55.05
66522;SHT31;53349;53.538;8.584;2022-07-29T09:54:45;21.94;54.65
66522;SHT31;53349;53.538;8.584;2022-07-29T09:57:23;21.98;54.42
66522;SHT31;53349;53.538;8.584;2022-07-29T10:00:04;22.05;54.29
66522;SHT31;53349;53.538;8.584;2022-07-29T10:02:37;22.04;54.49
66522;SHT31;53349;53.538;8.584;2022-07-29T10:05:05;22.13;54.81
66522;SHT31;53349;53.538;8.584;2022-07-29T10:10:27;22.22;54.74
66522;SHT31;53349;53.538;8.584;2022-07-29T10:15:21;22.35;53.80
66522;SHT31;53349;53.538;8.584;2022-07-29T10:17:47;22.46;53.96
66522;SHT31;53349;53.538;8.584;2022-07-29T10:20:14;22.42;53.95
66522;SHT31;53349;53.538;8.584;2022-07-29T10:22:41;22.47;53.44
66522;SHT31;53349;53.538;8.584;2022-07-29T10:25:08;22.53;52.71
66522;SHT31;53349;53.538;8.584;2022-07-29T10:27:35;22.66;52.51
66522;SHT31;53349;53.538;8.584;2022-07-29T10:30:01;22.61;52.61
66522;SHT31;53349;53.538;8.584;2022-07-29T10:33:01;22.71;52.61
66522;SHT31;53349;53.538;8.584;2022-07-29T10:36:07;22.71;52.11
66522;SHT31;53349;53.538;8.584;2022-07-29T10:46:40;22.97;51.12
66522;SHT31;53349;53.538;8.584;2022-07-29T10:49:13;23.27;50.68
66522;SHT31;53349;53.538;8.584;2022-07-29T10:57:29;23.32;50.06
66522;SHT31;53349;53.538;8.584;2022-07-29T11:05:08;23.51;49.84
66522;SHT31;53349;53.538;8.584;2022-07-29T11:07:35;23.61;49.22
66522;SHT31;53349;53.538;8.584;2022-07-29T11:15:12;23.61;48.92
66522;SHT31;53349;53.538;8.584;2022-07-29T11:20:42;23.54;48.56
66522;SHT31;53349;53.538;8.584;2022-07-29T11:23:27;23.62;48.48
66522;SHT31;53349;53.538;8.584;2022-07-29T11:29:08;23.73;47.88
66522;SHT31;53349;53.538;8.584;2022-07-29T11:31:49;23.89;47.79
66522;SHT31;53349;53.538;8.584;2022-07-29T11:34:34;24.12;47.52
66522;SHT31;53349;53.538;8.584;2022-07-29T11:39:45;24.18;46.81
66522;SHT31;53349;53.538;8.584;2022-07-29T11:47:28;24.37;46.38
66522;SHT31;53349;53.538;8.584;2022-07-29T11:50:00;24.50;46.55
66522;SHT31;53349;53.538;8.584;2022-07-29T11:52:33;24.57;46.43
66522;SHT31;53349;53.538;8.584;2022-07-29T11:55:01;24.57;46.46
66522;SHT31;53349;53.538;8.584;2022-07-29T11:57:27;24.60;47.31
66522;SHT31;53349;53.538;8.584;2022-07-29T11:59:53;24.61;47.01
66522;SHT31;53349;53.538;8.584;2022-07-29T12:02:20;24.68;46.06
66522;SHT31;53349;53.538;8.584;2022-07-29T12:07:15;24.57;45.18
66522;SHT31;53349;53.538;8.584;2022-07-29T12:09:49;24.61;44.95
66522;SHT31;53349;53.538;8.584;2022-07-29T12:12:16;24.54;44.62
66522;SHT31;53349;53.538;8.584;2022-07-29T12:14:42;24.65;45.15
66522;SHT31;53349;53.538;8.584;2022-07-29T12:17:31;24.63;44.57
66522;SHT31;53349;53.538;8.584;2022-07-29T12:19:58;24.61;44.63
66522;SHT31;53349;53.538;8.584;2022-07-29T12:22:29;24.63;44.34
66522;SHT31;53349;53.538;8.584;2022-07-29T12:25:01;24.57;43.67
66522;SHT31;53349;53.538;8.584;2022-07-29T12:27:27;24.61;44.27
66522;SHT31;53349;53.538;8.584;2022-07-29T12:29:57;24.57;44.14
66522;SHT31;53349;53.538;8.584;2022-07-29T12:32:23;24.57;44.14
66522;SHT31;53349;53.538;8.584;2022-07-29T12:34:49;24.53;44.49
66522;SHT31;53349;53.538;8.584;2022-07-29T12:37:16;24.46;44.21
66522;SHT31;53349;53.538;8.584;2022-07-29T12:39:41;24.46;43.89
66522;SHT31;53349;53.538;8.584;2022-07-29T12:42:14;24.37;44.38
66522;SHT31;53349;53.538;8.584;2022-07-29T12:44:47;24.33;44.89
66522;SHT31;53349;53.538;8.584;2022-07-29T12:47:13;24.28;44.52
66522;SHT31;53349;53.538;8.584;2022-07-29T12:49:38;24.24;44.69
66522;SHT31;53349;53.538;8.584;2022-07-29T12:52:27;24.20;44.80
66522;SHT31;53349;53.538;8.584;2022-07-29T12:54:52;24.21;44.01
66522;SHT31;53349;53.538;8.584;2022-07-29T12:57:18;24.21;44.94
66522;SHT31;53349;53.538;8.584;2022-07-29T12:59:44;24.24;44.51
66522;SHT31;53349;53.538;8.584;2022-07-29T13:02:22;24.31;44.15
66522;SHT31;53349;53.538;8.584;2022-07-29T13:04:58;24.40;43.53
66522;SHT31;53349;53.538;8.584;2022-07-29T13:07:25;24.44;44.20
66522;SHT31;53349;53.538;8.584;2022-07-29T13:09:52;24.46;41.22
66522;SHT31;53349;53.538;8.584;2022-07-29T13:12:18;24.43;41.78
66522;SHT31;53349;53.538;8.584;2022-07-29T13:14:47;24.41;41.63
66522;SHT31;53349;53.538;8.584;2022-07-29T13:17:17;24.41;40.93
66522;SHT31;53349;53.538;8.584;2022-07-29T13:19:49;24.36;40.63
66522;SHT31;53349;53.538;8.584;2022-07-29T13:22:20;24.34;40.78
66522;SHT31;53349;53.538;8.584;2022-07-29T13:24:50;24.43;41.26
66522;SHT31;53349;53.538;8.584;2022-07-29T13:27:18;24.41;41.96
66522;SHT31;53349;53.538;8.584;2022-07-29T13:29:44;24.38;41.71
66522;SHT31;53349;53.538;8.584;2022-07-29T13:32:10;24.46;42.11
66522;SHT31;53349;53.538;8.584;2022-07-29T13:34:37;24.50;42.26
66522;SHT31;53349;53.538;8.584;2022-07-29T13:37:02;24.56;42.28
66522;SHT31;53349;53.538;8.584;2022-07-29T13:39:27;24.57;42.68
66522;SHT31;53349;53.538;8.584;2022-07-29T13:41:53;24.56;42.49
66522;SHT31;53349;53.538;8.584;2022-07-29T13:44:18;24.64;42.69
66522;SHT31;53349;53.538;8.584;2022-07-29T13:46:44;24.57;42.57
66522;SHT31;53349;53.538;8.584;2022-07-29T13:49:09;24.58;42.82
66522;SHT31;53349;53.538;8.584;2022-07-29T13:51:36;24.51;43.14
66522;SHT31;53349;53.538;8.584;2022-07-29T13:54:02;24.56;43.17
66522;SHT31;53349;53.538;8.584;2022-07-29T13:56:28;24.53;42.72
66522;SHT31;53349;53.538;8.584;2022-07-29T13:58:54;24.58;42.86
66522;SHT31;53349;53.538;8.584;2022-07-29T14:01:19;24.56;42.79
66522;SHT31;53349;53.538;8.584;2022-07-29T14:03:45;24.57;42.76
66522;SHT31;53349;53.538;8.584;2022-07-29T14:06:10;24.56;41.29
66522;SHT31;53349;53.538;8.584;2022-07-29T14:08:36;24.56;40.68
66522;SHT31;53349;53.538;8.584;2022-07-29T14:11:01;24.57;40.07
66522;SHT31;53349;53.538;8.584;2022-07-29T14:13:27;24.58;40.38
66522;SHT31;53349;53.538;8.584;2022-07-29T14:15:52;24.63;41.08
66522;SHT31;53349;53.538;8.584;2022-07-29T14:18:18;24.60;41.30
66522;SHT31;53349;53.538;8.584;2022-07-29T14:20:43;24.65;40.74
66522;SHT31;53349;53.538;8.584;2022-07-29T14:23:09;24.63;40.87
66522;SHT31;53349;53.538;8.584;2022-07-29T14:25:34;24.64;41.81
66522;SHT31;53349;53.538;8.584;2022-07-29T14:28:00;24.64;41.17
66522;SHT31;53349;53.538;8.584;2022-07-29T14:30:26;24.60;40.13
66522;SHT31;53349;53.538;8.584;2022-07-29T14:32:51;24.58;40.47
66522;SHT31;53349;53.538;8.584;2022-07-29T14:35:17;24.58;40.78
66522;SHT31;53349;53.538;8.584;2022-07-29T14:37:42;24.58;40.68
66522;SHT31;53349;53.538;8.584;2022-07-29T14:40:09;24.57;40.37
66522;SHT31;53349;53.538;8.584;2022-07-29T14:42:38;24.56;40.58
66522;SHT31;53349;53.538;8.584;2022-07-29T14:45:05;24.60;41.12
66522;SHT31;53349;53.538;8.584;2022-07-29T14:47:30;24.67;40.56
66522;SHT31;53349;53.538;8.584;2022-07-29T14:49:56;24.68;39.91
66522;SHT31;53349;53.538;8.584;2022-07-29T14:52:21;24.63;40.22
66522;SHT31;53349;53.538;8.584;2022-07-29T14:54:47;24.63;40.44
66522;SHT31;53349;53.538;8.584;2022-07-29T14:57:12;24.60;40.58
66522;SHT31;53349;53.538;8.584;2022-07-29T14:59:38;24.60;40.60
66522;SHT31;53349;53.538;8.584;2022-07-29T15:02:03;24.56;39.83
66522;SHT31;53349;53.538;8.584;2022-07-29T15:04:28;24.53;40.01
66522;SHT31;53349;53.538;8.584;2022-07-29T15:06:54;24.60;40.44
66522;SHT31;53349;53.538;8.584;2022-07-29T15:09:19;24.58;40.37
66522;SHT31;53349;53.538;8.584;2022-07-29T15:11:45;24.56;40.18
66522;SHT31;53349;53.538;8.584;2022-07-29T15:14:10;24.51;40.30
66522;SHT31;53349;53.538;8.584;2022-07-29T15:16:37;24.48;40.67
66522;SHT31;53349;53.538;8.584;2022-07-29T15:19:04;24.46;40.76
66522;SHT31;53349;53.538;8.584;2022-07-29T15:21:29;24.50;40.64
66522;SHT31;53349;53.538;8.584;2022-07-29T15:23:55;24.50;40.16
66522;SHT31;53349;53.538;8.584;2022-07-29T15:26:20;24.51;40.24
66522;SHT31;53349;53.538;8.584;2022-07-29T15:28:46;24.50;40.22
66522;SHT31;53349;53.538;8.584;2022-07-29T15:31:11;24.47;40.57
66522;SHT31;53349;53.538;8.584;2022-07-29T15:33:37;24.44;41.23
66522;SHT31;53349;53.538;8.584;2022-07-29T15:36:03;24.47;41.40
66522;SHT31;53349;53.538;8.584;2022-07-29T15:38:30;24.43;41.74
66522;SHT31;53349;53.538;8.584;2022-07-29T15:40:55;24.37;42.26
66522;SHT31;53349;53.538;8.584;2022-07-29T15:43:21;24.31;42.52
66522;SHT31;53349;53.538;8.584;2022-07-29T15:45:47;24.33;42.86
66522;SHT31;53349;53.538;8.584;2022-07-29T15:48:31;24.23;43.11
66522;SHT31;53349;53.538;8.584;2022-07-29T15:50:58;24.24;43.46
66522;SHT31;53349;53.538;8.584;2022-07-29T15:53:24;24.17;43.71
66522;SHT31;53349;53.538;8.584;2022-07-29T15:55:50;24.12;43.77
66522;SHT31;53349;53.538;8.584;2022-07-29T15:58:15;24.09;43.38
66522;SHT31;53349;53.538;8.584;2022-07-29T16:00:41;24.05;43.22
66522;SHT31;53349;53.538;8.584;2022-07-29T16:03:06;23.99;43.15
66522;SHT31;53349;53.538;8.584;2022-07-29T16:05:32;23.96;42.99
66522;SHT31;53349;53.538;8.584;2022-07-29T16:07:58;23.97;43.31
66522;SHT31;53349;53.538;8.584;2022-07-29T16:10:24;23.95;43.31
66522;SHT31;53349;53.538;8.584;2022-07-29T16:12:50;23.95;43.61
66522;SHT31;53349;53.538;8.584;2022-07-29T16:15:15;23.89;43.82
66522;SHT31;53349;53.538;8.584;2022-07-29T16:17:41;23.80;43.57
66522;SHT31;53349;53.538;8.584;2022-07-29T16:20:07;23.78;43.93
66522;SHT31;53349;53.538;8.584;2022-07-29T16:22:33;23.78;43.90
66522;SHT31;53349;53.538;8.584;2022-07-29T16:24:58;23.73;44.04
66522;SHT31;53349;53.538;8.584;2022-07-29T16:27:24;23.72;44.20
66522;SHT31;53349;53.538;8.584;2022-07-29T16:29:53;23.69;44.52
66522;SHT31;53349;53.538;8.584;2022-07-29T16:32:18;23.69;44.77